createdAt,value
2022-10-20T00:14:14.571Z,8.70
2022-10-20T00:29:19.454Z,8.95
2022-10-20T00:44:40.434Z,9.08
2022-10-20T00:59:42.303Z,9.09
2022-10-20T01:14:49.599Z,9.09
2022-10-20T01:29:53.599Z,9.12
2022-10-20T01:44:56.505Z,9.23
2022-10-20T02:00:03.525Z,9.31
2022-10-20T02:15:06.339Z,9.50
2022-10-20T02:30:09.076Z,9.51
2022-10-20T02:45:11.135Z,9.48
2022-10-20T03:00:13.335Z,9.58
2022-10-20T03:15:15.306Z,9.66
2022-10-20T03:30:17.258Z,9.83
2022-10-20T03:45:19.125Z,9.81
2022-10-20T04:00:21.010Z,9.93
2022-10-20T04:15:22.934Z,9.91
2022-10-20T04:30:24.823Z,9.84
2022-10-20T04:45:26.815Z,9.74
2022-10-20T05:00:28.709Z,9.76
2022-10-20T05:15:30.616Z,9.63
2022-10-20T05:30:35.729Z,9.65
2022-10-20T05:45:37.677Z,9.67
2022-10-20T06:00:51.824Z,9.69
2022-10-20T06:15:53.771Z,9.74
2022-10-20T06:30:55.637Z,9.86
2022-10-20T06:45:58.246Z,9.91
2022-10-20T07:01:00.779Z,10.15
2022-10-20T07:16:02.728Z,10.57
2022-10-20T07:31:05.205Z,11.59
2022-10-20T07:46:07.706Z,12.49
2022-10-20T08:01:09.764Z,12.43
2022-10-20T08:16:12.062Z,13.55
2022-10-20T08:31:13.971Z,13.81
2022-10-20T08:46:16.257Z,14.20
2022-10-20T09:01:25.205Z,15.32
2022-10-20T09:16:40.906Z,15.13
2022-10-20T09:31:52.370Z,17.19
2022-10-20T09:46:54.336Z,18.29
2022-10-20T10:01:59.911Z,18.40
2022-10-20T10:17:01.791Z,17.23
2022-10-20T10:32:10.619Z,16.66
2022-10-20T10:47:27.746Z,16.63
2022-10-20T11:03:02.159Z,16.75
2022-10-20T11:18:03.998Z,18.57
2022-10-20T11:33:09.741Z,17.71
2022-10-20T11:48:17.748Z,16.80
2022-10-20T12:03:28.795Z,16.39
2022-10-20T12:18:31.394Z,16.52
2022-10-20T12:33:39.292Z,16.08
2022-10-20T12:48:42.473Z,15.97
2022-10-20T13:03:46.719Z,15.65
2022-10-20T13:18:50.449Z,15.53
2022-10-20T13:34:07.180Z,15.54
2022-10-20T13:49:24.141Z,15.51
2022-10-20T14:04:29.977Z,15.14
2022-10-20T14:19:33.444Z,14.86
2022-10-20T14:34:36.208Z,14.60
2022-10-20T14:49:38.161Z,14.36
2022-10-20T15:04:40.543Z,14.11
2022-10-20T15:19:42.422Z,13.85
2022-10-20T15:34:44.907Z,13.91
2022-10-20T15:49:47.049Z,13.59
2022-10-20T16:04:48.914Z,13.36
2022-10-20T16:19:50.797Z,13.19
2022-10-20T16:34:52.684Z,13.06
2022-10-20T16:49:54.583Z,13.25
2022-10-20T17:04:57.099Z,13.16
2022-10-20T17:19:59.082Z,12.93
2022-10-20T17:35:00.999Z,12.58
2022-10-20T17:50:02.994Z,12.46
2022-10-20T18:05:05.230Z,12.30
2022-10-20T18:20:07.292Z,12.29
2022-10-20T18:35:09.397Z,12.52
2022-10-20T18:50:11.354Z,12.29
2022-10-20T19:05:13.371Z,12.27
2022-10-20T19:20:15.568Z,12.09
2022-10-20T19:35:17.753Z,11.87
2022-10-20T19:50:19.676Z,11.90
2022-10-20T20:05:21.566Z,11.88
2022-10-20T20:20:23.460Z,11.81
2022-10-20T20:35:25.426Z,11.92
2022-10-20T20:50:27.298Z,12.31
2022-10-20T21:05:29.177Z,12.21
2022-10-20T21:20:31.074Z,12.40
2022-10-20T21:35:32.955Z,12.26
2022-10-20T21:50:35.329Z,12.15
2022-10-20T22:05:37.204Z,12.01
2022-10-20T22:20:39.104Z,11.97
2022-10-20T22:35:40.968Z,12.01
2022-10-20T22:50:42.845Z,11.82
2022-10-20T23:05:44.721Z,11.57
2022-10-20T23:20:46.590Z,11.58
2022-10-20T23:35:48.516Z,11.32
2022-10-20T23:50:50.422Z,11.09
